createdAt,value
2023-03-29T00:00:42.325Z,98799.28
2023-03-29T00:05:45.877Z,98795.84
2023-03-29T00:10:52.089Z,98792.28
2023-03-29T00:15:56.312Z,98776.56
2023-03-29T00:21:01.227Z,98793.91
2023-03-29T00:26:08.312Z,98789.38
2023-03-29T00:31:13.903Z,98783.00
2023-03-29T00:36:17.893Z,98777.63
2023-03-29T00:41:22.839Z,98771.66
2023-03-29T00:46:27.391Z,98777.38
2023-03-29T00:51:35.535Z,98773.47
2023-03-29T00:56:42.400Z,98775.19
2023-03-29T01:01:50.613Z,98746.50
2023-03-29T01:06:58.314Z,98763.41
2023-03-29T01:12:09.761Z,98752.63
2023-03-29T01:17:13.131Z,98743.75
2023-03-29T01:22:28.528Z,98742.81
2023-03-29T01:27:56.096Z,98735.78
2023-03-29T01:33:03.930Z,98734.00
2023-03-29T01:38:11.139Z,98721.00
2023-03-29T01:43:28.292Z,98718.28
2023-03-29T01:48:35.628Z,98714.91
2023-03-29T01:53:45.495Z,98719.06
2023-03-29T01:58:53.912Z,98716.13
2023-03-29T02:04:04.268Z,98700.34
2023-03-29T02:09:08.456Z,98705.50
2023-03-29T02:14:14.016Z,98693.66
2023-03-29T02:19:18.867Z,98692.28
2023-03-29T02:24:26.332Z,98685.03
2023-03-29T02:29:31.217Z,98684.09
2023-03-29T02:34:37.778Z,98678.97
2023-03-29T02:39:42.522Z,98678.91
2023-03-29T02:44:51.343Z,98677.91
2023-03-29T02:49:55.051Z,98665.28
2023-03-29T02:55:00.529Z,98661.44
2023-03-29T03:00:09.631Z,98659.47
2023-03-29T03:05:13.339Z,98658.38
2023-03-29T03:10:19.645Z,98660.84
2023-03-29T03:15:24.497Z,98660.44
2023-03-29T03:20:27.901Z,98649.75
2023-03-29T03:25:31.801Z,98659.06
2023-03-29T03:30:36.723Z,98653.66
2023-03-29T03:35:40.353Z,98645.53
2023-03-29T03:40:44.072Z,98649.56
2023-03-29T03:45:49.161Z,98634.28
2023-03-29T03:50:55.078Z,98637.47
2023-03-29T03:55:58.549Z,98633.56
2023-03-29T04:01:04.357Z,98612.44
2023-03-29T04:06:08.182Z,98625.00
2023-03-29T04:11:12.016Z,98611.38
2023-03-29T04:16:16.992Z,98602.06
2023-03-29T04:21:21.332Z,98604.31
2023-03-29T04:26:25.017Z,98597.00
2023-03-29T04:31:29.873Z,98602.78
2023-03-29T04:36:33.367Z,98595.34
2023-03-29T04:41:47.417Z,98600.66
2023-03-29T04:46:52.423Z,98593.00
2023-03-29T04:51:56.099Z,98584.53
2023-03-29T04:56:59.470Z,98595.41
2023-03-29T05:02:05.130Z,98587.22
2023-03-29T05:07:08.791Z,98597.38
2023-03-29T05:12:12.306Z,98597.41
2023-03-29T05:17:17.218Z,98588.13
2023-03-29T05:22:21.744Z,98591.78
2023-03-29T05:27:25.635Z,98595.31
2023-03-29T05:32:30.704Z,98586.47
2023-03-29T05:37:34.856Z,98591.47
2023-03-29T05:42:39.059Z,98577.28
2023-03-29T05:47:44.786Z,98576.94
2023-03-29T05:52:48.176Z,98577.63
2023-03-29T05:57:51.702Z,98569.94
2023-03-29T06:03:03.688Z,98581.72
2023-03-29T06:08:13.520Z,98568.56
2023-03-29T06:13:17.903Z,98574.50
2023-03-29T06:18:22.681Z,98583.28
2023-03-29T06:23:26.221Z,98578.06
2023-03-29T06:28:30.076Z,98587.22
2023-03-29T06:33:37.284Z,98586.69
2023-03-29T06:38:41.788Z,98564.34
2023-03-29T06:43:45.480Z,98577.97
2023-03-29T06:48:50.470Z,98577.31
2023-03-29T06:53:54.099Z,98571.28
2023-03-29T06:58:57.581Z,98572.94
2023-03-29T07:04:05.004Z,98572.00
2023-03-29T07:09:09.159Z,98578.81
2023-03-29T07:14:12.635Z,98571.44
2023-03-29T07:19:17.556Z,98571.28
2023-03-29T07:24:21.506Z,98562.38
2023-03-29T07:29:24.971Z,98557.03
2023-03-29T07:34:31.592Z,98559.22
2023-03-29T07:39:35.505Z,98557.41
2023-03-29T07:44:39.195Z,98576.75
2023-03-29T07:49:44.044Z,98567.50
2023-03-29T07:54:47.692Z,98570.78
2023-03-29T07:59:51.108Z,98568.22
2023-03-29T08:04:57.087Z,98560.31
2023-03-29T08:10:01.268Z,98552.34
2023-03-29T08:15:06.264Z,98552.94
2023-03-29T08:20:15.209Z,98550.94
2023-03-29T08:25:18.901Z,98555.63
2023-03-29T08:30:22.508Z,98553.13
2023-03-29T08:35:27.744Z,98546.50
2023-03-29T08:40:31.898Z,98541.28
2023-03-29T08:45:41.764Z,98547.41
2023-03-29T08:50:52.827Z,98512.34
2023-03-29T08:55:59.508Z,98536.69
2023-03-29T09:01:06.243Z,98552.25
2023-03-29T09:06:12.944Z,98547.50
2023-03-29T09:11:30.558Z,98564.06
2023-03-29T09:16:43.353Z,98569.69
2023-03-29T09:21:52.838Z,98561.34
2023-03-29T09:27:01.229Z,98554.69
2023-03-29T09:32:14.265Z,98567.94
2023-03-29T09:37:24.822Z,98574.88
2023-03-29T09:42:31.292Z,98561.16
2023-03-29T09:47:39.180Z,98563.72
2023-03-29T09:52:44.222Z,98552.94
2023-03-29T09:57:47.689Z,98552.16
2023-03-29T10:02:55.432Z,98543.03
2023-03-29T10:08:02.632Z,98544.41
2023-03-29T10:13:12.329Z,98550.50
2023-03-29T10:18:16.943Z,98557.19
2023-03-29T10:23:22.035Z,98556.97
2023-03-29T10:28:26.458Z,98540.28
2023-03-29T10:33:33.093Z,98546.91
2023-03-29T10:38:39.536Z,98545.13
2023-03-29T10:43:46.354Z,98537.06
2023-03-29T10:48:51.999Z,98519.25
2023-03-29T10:53:58.926Z,98548.38
2023-03-29T10:59:27.598Z,98552.31
2023-03-29T11:04:42.266Z,98560.84
2023-03-29T11:09:55.744Z,98537.03
2023-03-29T11:15:11.225Z,98549.41
2023-03-29T11:20:33.494Z,98560.31
2023-03-29T11:25:50.639Z,98555.22
2023-03-29T11:31:02.251Z,98559.66
2023-03-29T11:36:13.858Z,98562.16
2023-03-29T11:41:22.305Z,98559.75
2023-03-29T11:46:31.654Z,98564.47
2023-03-29T11:51:39.877Z,98565.34
2023-03-29T11:56:48.867Z,98563.94
2023-03-29T12:01:55.742Z,98568.56
2023-03-29T12:07:10.199Z,98586.25
2023-03-29T12:12:20.558Z,98583.97
2023-03-29T12:17:29.635Z,98582.41
2023-03-29T12:22:34.107Z,98579.06
2023-03-29T12:27:46.926Z,98577.94
2023-03-29T12:33:18.382Z,98584.19
2023-03-29T12:38:24.238Z,98582.00
2023-03-29T12:43:32.605Z,98587.00
2023-03-29T12:48:38.944Z,98574.38
2023-03-29T12:53:45.203Z,98580.88
2023-03-29T12:59:07.142Z,98570.94
2023-03-29T13:04:19.618Z,98586.53
2023-03-29T13:09:24.805Z,98584.25
2023-03-29T13:14:34.254Z,98589.38
2023-03-29T13:19:44.715Z,98600.13
2023-03-29T13:25:10.521Z,98601.84
2023-03-29T13:30:35.317Z,98611.88
2023-03-29T13:35:49.294Z,98614.72
2023-03-29T13:41:04.926Z,98624.84
2023-03-29T13:46:36.640Z,98621.72
2023-03-29T13:51:42.571Z,98629.25
2023-03-29T13:56:59.919Z,98637.50
2023-03-29T14:02:07.607Z,98650.06
2023-03-29T14:07:16.350Z,98646.72
2023-03-29T14:12:20.168Z,98638.59
2023-03-29T14:17:26.177Z,98645.72
2023-03-29T14:22:32.470Z,98658.88
2023-03-29T14:27:37.936Z,98661.28
2023-03-29T14:32:42.822Z,98663.41
2023-03-29T14:37:48.190Z,98674.94
2023-03-29T14:42:52.323Z,98672.84
2023-03-29T14:47:58.131Z,98678.16
2023-03-29T14:53:03.382Z,98680.03
2023-03-29T14:58:21.439Z,98693.31
2023-03-29T15:03:27.433Z,98696.13
2023-03-29T15:08:35.023Z,98697.94
2023-03-29T15:13:42.962Z,98699.56
2023-03-29T15:18:51.899Z,98672.91
2023-03-29T15:23:57.882Z,98696.34
2023-03-29T15:29:09.149Z,98700.97
2023-03-29T15:34:15.631Z,98701.41
2023-03-29T15:39:20.730Z,98704.84
2023-03-29T15:44:27.817Z,98721.44
2023-03-29T15:49:32.593Z,98730.38
2023-03-29T15:54:37.333Z,98734.88
2023-03-29T15:59:41.076Z,98738.47
2023-03-29T16:04:46.034Z,98742.06
2023-03-29T16:09:49.487Z,98742.06
2023-03-29T16:14:53.371Z,98750.88
2023-03-29T16:19:58.119Z,98750.78
2023-03-29T16:25:01.449Z,98754.22
2023-03-29T16:30:05.387Z,98763.75
2023-03-29T16:35:17.180Z,98758.69
2023-03-29T16:40:21.163Z,98769.97
2023-03-29T16:45:24.741Z,98773.50
2023-03-29T16:50:29.558Z,98785.72
2023-03-29T16:55:33.086Z,98776.97
2023-03-29T17:00:36.810Z,98775.25
2023-03-29T17:05:41.857Z,98777.81
2023-03-29T17:10:45.519Z,98792.88
2023-03-29T17:15:52.215Z,98716.91
2023-03-29T17:21:00.149Z,98798.44
2023-03-29T17:26:04.087Z,98793.16
2023-03-29T17:31:09.067Z,98796.59
2023-03-29T17:36:14.415Z,98796.53
2023-03-29T17:41:19.275Z,98776.78
2023-03-29T17:46:23.175Z,98801.75
2023-03-29T17:51:28.608Z,98802.53
2023-03-29T17:56:32.166Z,98803.47
2023-03-29T18:01:38.464Z,98809.63
2023-03-29T18:06:43.925Z,98810.50
2023-03-29T18:11:47.367Z,98814.84
2023-03-29T18:16:50.988Z,98820.16
2023-03-29T18:21:56.202Z,98823.81
2023-03-29T18:26:59.612Z,98824.81
2023-03-29T18:32:03.236Z,98820.28
2023-03-29T18:37:14.540Z,98830.97
2023-03-29T18:42:20.432Z,98836.31
2023-03-29T18:47:24.051Z,98833.81
2023-03-29T18:52:28.911Z,98837.56
2023-03-29T18:57:32.420Z,98841.13
2023-03-29T19:02:36.061Z,98841.31
2023-03-29T19:07:41.075Z,98845.91
2023-03-29T19:12:44.689Z,98854.16
2023-03-29T19:17:48.150Z,98853.50
2023-03-29T19:22:53.403Z,98849.22
2023-03-29T19:27:58.871Z,98849.22
2023-03-29T19:33:02.499Z,98846.66
2023-03-29T19:38:07.755Z,98857.38
2023-03-29T19:43:16.428Z,98853.03
2023-03-29T19:48:23.684Z,98862.72
2023-03-29T19:53:29.701Z,98857.38
2023-03-29T19:58:33.279Z,98861.81
2023-03-29T20:03:36.758Z,98856.38
2023-03-29T20:08:41.828Z,98866.00
2023-03-29T20:13:46.610Z,98873.06
2023-03-29T20:18:49.939Z,98868.69
2023-03-29T20:23:54.869Z,98851.03
2023-03-29T20:28:58.308Z,98856.38
2023-03-29T20:34:01.594Z,98858.22
2023-03-29T20:39:06.529Z,98870.69
2023-03-29T20:44:10.769Z,98877.84
2023-03-29T20:49:14.295Z,98877.97
2023-03-29T20:54:19.184Z,98888.69
2023-03-29T20:59:22.878Z,98888.84
2023-03-29T21:04:26.791Z,98888.84
2023-03-29T21:09:34.334Z,98884.34
2023-03-29T21:14:38.012Z,98876.31
2023-03-29T21:19:41.715Z,98885.13
2023-03-29T21:24:46.657Z,98875.53
2023-03-29T21:29:50.438Z,98891.47
2023-03-29T21:34:54.072Z,98895.19
2023-03-29T21:39:59.000Z,98897.19
2023-03-29T21:45:02.531Z,98874.91
2023-03-29T21:50:08.260Z,98893.88
2023-03-29T21:55:13.095Z,98893.00
2023-03-29T22:00:18.053Z,98896.41
2023-03-29T22:05:21.699Z,98897.94
2023-03-29T22:10:27.437Z,98886.31
2023-03-29T22:15:35.590Z,98887.19
2023-03-29T22:20:40.274Z,98888.03
2023-03-29T22:25:45.047Z,98886.41
2023-03-29T22:30:48.499Z,98891.91
2023-03-29T22:35:51.971Z,98877.06
2023-03-29T22:40:57.270Z,98876.28
2023-03-29T22:46:00.934Z,98886.06
2023-03-29T22:51:05.650Z,98876.41
2023-03-29T22:56:10.910Z,98885.34
2023-03-29T23:01:14.738Z,98882.75
2023-03-29T23:06:18.299Z,98888.03
2023-03-29T23:11:23.246Z,98895.06
2023-03-29T23:16:26.793Z,98897.78
2023-03-29T23:21:30.276Z,98887.19
2023-03-29T23:26:35.783Z,98886.31
2023-03-29T23:31:39.353Z,98877.41
2023-03-29T23:36:42.688Z,98886.16
2023-03-29T23:41:47.457Z,98880.78
2023-03-29T23:46:51.001Z,98880.78
2023-03-29T23:51:54.389Z,98887.00
2023-03-29T23:57:00.306Z,98877.28
